Terminal Aerodrome Forecast
Issued by NWS

Home | Current Version | Previous Version | Graphics & Text | Print | Product List | Glossary On
Versions: 1 2 3 4 5 6 7 8 9 10 11 12
000
FTUS45 KGGW 202300
TAFSDY
TAF
KSDY 202322Z 2100/2124 34013KT P6SM SCT090
     FM210100 VRB04KT P6SM SCT150
     FM211400 03007KT P6SM FEW100
      AMD LTD TO CLD VIS AND WIND=

USA.gov is the U.S. government's official web portal to all federal, state and local government web resources and services.